Time;durP1;ratioP1;P1;durP2;ratioP2;P2;SDS_P1;SDS_P2;PMS_P1;PMS_P2;Temp;Humidity;BMP_temperature;BMP_pressure;BME280_temperature;BME280_humidity;BME280_pressure;Samples;Min_cycle;Max_cycle;Signal;HPM_P1;HPM_P2
2024/01/09 00:01:45;;;;;;;6.65;5.95;;;-5.60;99.90;;;;;;12342639;28;20043;-79
2024/01/09 00:07:47;;;;;;;6.50;5.90;;;-5.70;99.90;;;;;;12337698;28;20066;-78
2024/01/09 00:13:49;;;;;;;6.43;5.82;;;-5.80;99.90;;;;;;12325289;28;20058;-80
2024/01/09 00:19:51;;;;;;;7.25;5.78;;;-5.80;99.90;;;;;;12331589;28;20044;-81
2024/01/09 00:25:53;;;;;;;8.27;6.22;;;-5.80;99.90;;;;;;12331214;28;20131;-78
2024/01/09 00:31:56;;;;;;;6.75;6.05;;;-5.90;99.90;;;;;;12335159;28;20055;-79
2024/01/09 00:37:58;;;;;;;5.68;5.18;;;-6.00;99.90;;;;;;12345186;28;20065;-82
2024/01/09 00:44:00;;;;;;;7.43;4.95;;;-6.00;99.90;;;;;;12322332;28;20051;-79
2024/01/09 00:50:02;;;;;;;8.25;5.82;;;-6.00;99.90;;;;;;12333902;28;20059;-80
2024/01/09 00:56:04;;;;;;;6.10;5.50;;;-6.00;99.90;;;;;;12327911;28;20055;-79
2024/01/09 01:02:07;;;;;;;7.20;5.72;;;-6.10;99.90;;;;;;12373319;28;20151;-82
2024/01/09 01:08:09;;;;;;;7.72;5.80;;;-6.00;99.90;;;;;;12349978;28;20059;-79
2024/01/09 01:14:11;;;;;;;8.30;5.75;;;-6.10;99.90;;;;;;12348347;28;20066;-76
2024/01/09 01:20:13;;;;;;;7.75;6.15;;;-6.20;99.90;;;;;;12334802;28;20044;-79
2024/01/09 01:26:15;;;;;;;11.60;5.78;;;-6.20;99.90;;;;;;12348564;28;20066;-79
2024/01/09 01:32:17;;;;;;;10.02;6.20;;;-6.20;99.90;;;;;;12327959;28;20051;-79
2024/01/09 01:38:19;;;;;;;8.05;6.78;;;-6.10;99.90;;;;;;12388321;28;20043;-81
2024/01/09 01:44:22;;;;;;;9.75;7.22;;;-6.30;99.90;;;;;;12385251;28;20058;-83
2024/01/09 01:50:24;;;;;;;8.98;6.93;;;-6.10;99.90;;;;;;12372608;28;20065;-83
2024/01/09 01:56:26;;;;;;;12.63;8.25;;;-6.10;99.90;;;;;;12418562;28;20069;-82
2024/01/09 02:02:30;;;;;;;9.40;7.55;;;-6.30;99.90;;;;;;12426320;28;20030;-79
2024/01/09 02:08:33;;;;;;;11.68;10.35;;;-6.40;99.90;;;;;;12383573;28;20055;-79
2024/01/09 02:14:35;;;;;;;11.23;10.13;;;-6.50;99.90;;;;;;12389435;28;20071;-80
2024/01/09 02:20:38;;;;;;;12.40;9.73;;;-6.60;99.90;;;;;;12355784;28;20066;-79
2024/01/09 02:26:47;;;;;;;11.90;10.07;;;-6.50;99.90;;;;;;12357541;28;20047;-79
2024/01/09 02:33:07;;;;;;;11.40;10.25;;;-6.60;99.90;;;;;;12344597;28;20077;-79
2024/01/09 02:39:09;;;;;;;13.25;11.95;;;-6.60;99.90;;;;;;12345376;28;20059;-81
2024/01/09 02:45:13;;;;;;;13.70;12.45;;;-6.70;99.90;;;;;;12350695;28;20487;-79
2024/01/09 02:51:15;;;;;;;16.13;14.63;;;-6.70;99.90;;;;;;12337903;28;20055;-79
2024/01/09 02:57:17;;;;;;;16.58;15.07;;;-6.80;99.90;;;;;;12389611;28;20056;-77
2024/01/09 03:03:19;;;;;;;18.70;17.00;;;-6.90;99.90;;;;;;12334569;28;20059;-77
2024/01/09 03:09:21;;;;;;;19.30;17.88;;;-7.00;99.90;;;;;;12367613;28;20419;-77
2024/01/09 03:15:23;;;;;;;23.20;21.38;;;-7.00;99.90;;;;;;12372351;28;20050;-78
2024/01/09 03:21:25;;;;;;;25.85;24.17;;;-6.90;99.90;;;;;;12334760;28;20073;-77
2024/01/09 03:27:26;;;;;;;27.40;25.52;;;-7.00;99.90;;;;;;12339059;28;20054;-81
2024/01/09 03:33:28;;;;;;;34.00;31.60;;;-7.00;99.90;;;;;;12343972;28;20058;-77
2024/01/09 03:39:30;;;;;;;43.63;40.90;;;-7.10;99.90;;;;;;12317835;28;20696;-77
2024/01/09 03:45:32;;;;;;;49.08;46.15;;;-7.20;99.90;;;;;;12332921;28;20043;-77
2024/01/09 03:51:34;;;;;;;58.85;55.35;;;-7.20;99.90;;;;;;12323033;28;20050;-79
2024/01/09 03:57:36;;;;;;;71.60;67.55;;;-7.30;99.90;;;;;;12328859;28;20043;-78
2024/01/09 04:03:38;;;;;;;76.75;72.50;;;-7.30;99.90;;;;;;12338017;28;20054;-78
2024/01/09 04:09:40;;;;;;;78.20;73.65;;;-7.30;99.90;;;;;;12331179;28;20059;-77
2024/01/09 04:15:42;;;;;;;75.05;70.78;;;-7.30;99.90;;;;;;12384225;28;20054;-78
2024/01/09 04:21:44;;;;;;;78.20;73.40;;;-7.30;99.90;;;;;;12360838;28;20047;-78
2024/01/09 04:27:46;;;;;;;77.65;73.13;;;-7.30;99.90;;;;;;12321760;28;20058;-78
2024/01/09 04:33:48;;;;;;;77.82;73.38;;;-7.40;99.90;;;;;;12324603;28;20384;-78
2024/01/09 04:39:50;;;;;;;76.70;72.03;;;-7.30;99.90;;;;;;12337987;28;20472;-79
2024/01/09 04:45:52;;;;;;;77.40;72.95;;;-7.30;99.90;;;;;;12345124;28;20053;-78
2024/01/09 04:51:54;;;;;;;82.15;76.95;;;-7.40;99.90;;;;;;12327343;28;20051;-79
2024/01/09 04:57:55;;;;;;;82.28;77.40;;;-7.40;99.90;;;;;;12346507;28;20420;-77
2024/01/09 05:03:57;;;;;;;79.65;74.70;;;-7.40;99.90;;;;;;12343083;28;20057;-78
2024/01/09 05:09:59;;;;;;;80.30;74.70;;;-7.40;99.90;;;;;;12375046;28;20049;-79
2024/01/09 05:16:01;;;;;;;78.05;73.43;;;-7.40;99.90;;;;;;12384686;28;20055;-79
2024/01/09 05:22:03;;;;;;;77.40;72.50;;;-7.50;99.90;;;;;;12319224;28;20063;-78
2024/01/09 05:28:05;;;;;;;74.22;69.63;;;-7.40;99.90;;;;;;12336892;28;20066;-78
2024/01/09 05:34:08;;;;;;;74.88;69.97;;;-7.40;99.90;;;;;;12311445;28;20043;-78
2024/01/09 05:40:12;;;;;;;73.53;68.78;;;-7.50;99.90;;;;;;12333062;28;20513;-78
2024/01/09 05:46:14;;;;;;;74.72;69.82;;;-7.60;99.90;;;;;;12335099;28;20059;-78
2024/01/09 05:52:17;;;;;;;73.78;69.05;;;-7.60;99.90;;;;;;12323697;28;20051;-79
2024/01/09 05:58:19;;;;;;;72.47;67.93;;;-7.60;99.90;;;;;;12334364;28;20087;-78
2024/01/09 06:04:21;;;;;;;73.55;68.85;;;-7.60;99.90;;;;;;12342308;28;20426;-79
2024/01/09 06:10:24;;;;;;;73.60;68.88;;;-7.60;99.90;;;;;;12323987;28;20140;-78
2024/01/09 06:16:26;;;;;;;71.05;66.53;;;-7.70;99.90;;;;;;12346256;28;20050;-77
2024/01/09 06:22:29;;;;;;;73.30;68.65;;;-7.60;99.90;;;;;;12327399;28;20407;-77
2024/01/09 06:28:33;;;;;;;71.47;66.60;;;-7.60;99.90;;;;;;12331419;28;20057;-78
2024/01/09 06:34:36;;;;;;;;;;;-7.50;99.90;;;;;;12317732;28;20047;-77
2024/01/09 06:40:38;;;;;;;70.88;66.57;;;-7.60;99.90;;;;;;12323164;28;19922;-78
2024/01/09 06:46:40;;;;;;;71.07;66.63;;;-7.50;99.90;;;;;;12359572;28;20499;-79
2024/01/09 06:52:42;;;;;;;73.63;69.07;;;-7.70;99.90;;;;;;12336946;28;20056;-78
2024/01/09 06:58:45;;;;;;;72.40;67.78;;;-7.60;99.90;;;;;;12327449;28;20051;-79
2024/01/09 07:04:47;;;;;;;71.93;67.43;;;-7.50;99.90;;;;;;12334745;28;20205;-77
2024/01/09 07:10:49;;;;;;;72.70;67.70;;;-7.50;99.90;;;;;;12380695;28;20051;-78
2024/01/09 07:16:52;;;;;;;71.32;66.72;;;-7.60;99.90;;;;;;12334035;28;20055;-81
2024/01/09 07:22:54;;;;;;;73.03;68.43;;;-7.60;99.90;;;;;;12318135;28;20042;-78
2024/01/09 07:29:16;;;;;;;76.47;71.47;;;-7.60;99.90;;;;;;12328045;28;20051;-79
2024/01/09 07:35:18;;;;;;;73.13;68.45;;;-7.70;99.90;;;;;;12332286;28;20062;-78
2024/01/09 07:41:20;;;;;;;74.35;69.57;;;-7.80;99.90;;;;;;12325663;28;20055;-78
2024/01/09 07:47:22;;;;;;;76.32;71.35;;;-7.90;99.90;;;;;;12322198;28;20066;-78
2024/01/09 07:53:24;;;;;;;75.22;70.75;;;-7.90;99.90;;;;;;12309137;28;20051;-78
2024/01/09 07:59:26;;;;;;;74.35;69.70;;;-7.80;99.90;;;;;;12339861;28;20059;-79
2024/01/09 08:05:29;;;;;;;78.45;73.75;;;-7.90;99.90;;;;;;12328014;28;20397;-78
2024/01/09 08:11:31;;;;;;;78.60;73.75;;;-7.80;99.90;;;;;;12355975;28;20132;-80
2024/01/09 08:17:33;;;;;;;79.38;74.35;;;-7.70;99.90;;;;;;12320921;28;20047;-79
2024/01/09 08:23:36;;;;;;;73.35;68.85;;;-7.50;99.90;;;;;;12322886;28;20649;-79
2024/01/09 08:29:38;;;;;;;69.93;65.72;;;-7.50;99.90;;;;;;12315925;28;20058;-79
2024/01/09 08:35:40;;;;;;;70.88;66.63;;;-7.40;99.90;;;;;;12327860;28;20047;-79
2024/01/09 08:41:42;;;;;;;73.53;69.03;;;-7.20;99.90;;;;;;12327881;28;20126;-79
2024/01/09 08:47:44;;;;;;;72.10;67.68;;;-7.20;99.90;;;;;;12326181;28;20058;-78
2024/01/09 08:53:46;;;;;;;75.85;70.68;;;-7.10;99.90;;;;;;12336463;28;20066;-78
2024/01/09 08:59:48;;;;;;;72.68;67.60;;;-7.00;99.90;;;;;;12342127;28;20475;-76
2024/01/09 09:05:50;;;;;;;75.43;70.65;;;-6.90;99.90;;;;;;12339597;28;20059;-78
2024/01/09 09:11:52;;;;;;;74.57;70.07;;;-6.70;99.90;;;;;;12341556;28;20506;-78
2024/01/09 09:17:54;;;;;;;75.10;70.38;;;-6.60;99.90;;;;;;12314909;28;20055;-78
2024/01/09 09:23:57;;;;;;;75.20;70.47;;;-6.50;99.90;;;;;;12317349;28;20049;-82
2024/01/09 09:29:59;;;;;;;65.53;61.70;;;-6.30;99.90;;;;;;12339669;28;20167;-79
2024/01/09 09:36:05;;;;;;;67.32;63.42;;;-6.20;99.90;;;;;;12340586;28;20572;-77
2024/01/09 09:42:08;;;;;;;62.10;58.35;;;-5.90;99.90;;;;;;12334292;28;20047;-78
2024/01/09 09:48:12;;;;;;;64.47;60.47;;;-5.80;99.90;;;;;;12325946;28;20059;-79
2024/01/09 09:54:15;;;;;;;64.82;60.80;;;-5.60;99.90;;;;;;12323175;28;20086;-78
2024/01/09 10:00:18;;;;;;;68.18;63.78;;;-5.30;99.90;;;;;;12322814;28;20039;-79
2024/01/09 10:06:20;;;;;;;66.75;62.78;;;-5.20;99.90;;;;;;12351268;28;20051;-80
2024/01/09 10:12:25;;;;;;;56.50;53.13;;;-5.00;99.90;;;;;;12325535;28;20427;-78
2024/01/09 10:18:31;;;;;;;55.85;52.17;;;-5.00;99.90;;;;;;12322088;28;20051;-80
2024/01/09 10:24:36;;;;;;;49.80;46.95;;;-4.80;99.90;;;;;;12345371;28;20053;-78
2024/01/09 10:30:38;;;;;;;40.50;37.85;;;-4.80;99.90;;;;;;12335944;28;20055;-78
2024/01/09 10:36:39;;;;;;;46.15;43.35;;;-4.70;99.90;;;;;;12318071;28;20405;-78
2024/01/09 10:42:46;;;;;;;54.70;51.40;;;-4.40;99.90;;;;;;12344677;28;20043;-79
2024/01/09 10:48:50;;;;;;;56.35;52.97;;;-4.20;99.90;;;;;;12339311;28;20196;-78
2024/01/09 10:54:54;;;;;;;51.88;48.35;;;-4.00;99.90;;;;;;12336257;28;20055;-78
2024/01/09 11:00:56;;;;;;;48.17;45.23;;;-3.90;99.90;;;;;;12319591;28;20051;-79
2024/01/09 11:06:58;;;;;;;40.10;37.40;;;-3.80;99.90;;;;;;12331862;28;20062;-79
2024/01/09 11:13:02;;;;;;;47.92;45.13;;;-3.70;99.90;;;;;;12328902;28;20407;-79
2024/01/09 11:19:09;;;;;;;31.55;29.08;;;-3.60;99.90;;;;;;12325110;28;20477;-78
2024/01/09 11:25:20;;;;;;;34.50;32.20;;;-3.50;99.90;;;;;;12311073;28;20047;-79
2024/01/09 11:31:23;;;;;;;26.08;24.17;;;-3.40;99.90;;;;;;12353805;28;20388;-80
2024/01/09 11:37:25;;;;;;;23.30;21.47;;;-3.40;99.90;;;;;;12333726;28;20173;-78
2024/01/09 11:43:28;;;;;;;25.63;23.70;;;-3.40;99.90;;;;;;12346218;28;20058;-80
2024/01/09 11:49:30;;;;;;;19.63;18.10;;;-3.20;99.90;;;;;;12341944;28;20065;-80
2024/01/09 11:55:33;;;;;;;11.95;10.90;;;-3.10;99.90;;;;;;12317182;28;20082;-79
2024/01/09 12:01:35;;;;;;;15.15;13.80;;;-3.10;99.90;;;;;;12322857;28;20051;-79
2024/01/09 12:07:39;;;;;;;12.25;11.20;;;-3.10;99.90;;;;;;12319784;28;20047;-79
2024/01/09 12:13:41;;;;;;;9.50;8.70;;;-3.00;99.90;;;;;;12363621;28;20138;-78
2024/01/09 12:19:44;;;;;;;10.13;9.27;;;-3.10;99.90;;;;;;12324691;28;20049;-80
2024/01/09 12:25:48;;;;;;;10.13;9.23;;;-3.00;99.90;;;;;;12314478;28;20568;-78
2024/01/09 12:31:50;;;;;;;;;;;-3.10;99.90;;;;;;12326011;28;20058;-79
2024/01/09 12:37:52;;;;;;;10.18;8.65;;;-3.10;99.90;;;;;;12368486;28;19926;-82
2024/01/09 12:43:54;;;;;;;12.57;11.20;;;-3.20;99.90;;;;;;12343129;28;20070;-78
2024/01/09 12:49:56;;;;;;;13.23;12.07;;;-3.10;99.90;;;;;;12348789;28;20051;-81
2024/01/09 12:56:08;;;;;;;14.85;13.55;;;-3.20;99.90;;;;;;12317377;28;20051;-79
2024/01/09 13:02:10;;;;;;;16.67;15.30;;;-3.20;99.90;;;;;;12324093;28;20057;-79
2024/01/09 13:08:12;;;;;;;13.63;12.57;;;-3.20;99.90;;;;;;12337381;28;20062;-80
2024/01/09 13:14:15;;;;;;;13.70;12.32;;;-3.20;99.90;;;;;;12346012;28;20062;-80
2024/01/09 13:20:17;;;;;;;14.55;13.18;;;-3.30;99.90;;;;;;12329951;28;20058;-78
2024/01/09 13:26:19;;;;;;;13.77;12.38;;;-3.40;99.90;;;;;;12329666;28;20050;-79
2024/01/09 13:32:21;;;;;;;17.80;16.20;;;-3.30;99.90;;;;;;12330932;28;20048;-80
2024/01/09 13:38:23;;;;;;;17.95;16.02;;;-3.30;99.90;;;;;;12334985;28;20102;-79
2024/01/09 13:44:26;;;;;;;22.50;20.42;;;-3.30;99.90;;;;;;12329022;28;20058;-81
2024/01/09 13:50:28;;;;;;;23.55;21.55;;;-3.40;99.90;;;;;;12330433;28;20058;-79
2024/01/09 13:56:50;;;;;;;23.60;21.80;;;-3.50;99.90;;;;;;12332249;28;20079;-78
2024/01/09 14:02:53;;;;;;;22.23;20.48;;;-3.50;99.90;;;;;;12325562;28;20058;-79
2024/01/09 14:08:57;;;;;;;30.37;28.17;;;-3.50;99.90;;;;;;12393664;28;20083;-77
2024/01/09 14:14:59;;;;;;;30.50;28.40;;;-3.70;99.90;;;;;;12381544;28;20061;-79
2024/01/09 14:21:01;;;;;;;31.40;29.30;;;-3.70;99.90;;;;;;12344096;28;20051;-79
2024/01/09 14:27:04;;;;;;;30.75;28.50;;;-3.80;99.90;;;;;;12359485;28;20132;-78
2024/01/09 14:33:06;;;;;;;28.52;26.63;;;-3.90;99.90;;;;;;12404335;28;20057;-78
2024/01/09 14:39:08;;;;;;;23.95;21.95;;;-3.90;99.90;;;;;;12386133;28;20050;-80
2024/01/09 14:45:12;;;;;;;24.17;22.52;;;-3.90;99.90;;;;;;12363225;28;20047;-80
2024/01/09 14:51:14;;;;;;;;;;;-3.90;99.90;;;;;;12373261;28;20054;-81
2024/01/09 14:57:16;;;;;;;20.48;19.02;;;-4.00;99.90;;;;;;12379534;28;19924;-81
2024/01/09 15:03:18;;;;;;;19.17;17.75;;;-4.00;99.90;;;;;;12392182;28;20034;-80
2024/01/09 15:09:20;;;;;;;19.67;18.08;;;-4.00;99.90;;;;;;12381818;28;20053;-82
2024/01/09 15:15:22;;;;;;;17.67;16.45;;;-4.20;99.90;;;;;;12378034;28;20053;-83
2024/01/09 15:21:24;;;;;;;16.15;14.93;;;-4.20;99.90;;;;;;12349442;28;20047;-78
2024/01/09 15:27:26;;;;;;;18.70;17.00;;;-4.20;99.90;;;;;;12337271;28;20097;-80
2024/01/09 15:33:28;;;;;;;18.65;17.15;;;-4.30;99.90;;;;;;12328964;28;20043;-78
2024/01/09 15:39:30;;;;;;;17.70;16.30;;;-4.30;99.90;;;;;;12350622;28;20046;-78
2024/01/09 15:45:33;;;;;;;17.50;16.17;;;-4.40;99.90;;;;;;12328315;28;20054;-79
2024/01/09 15:51:35;;;;;;;20.23;18.25;;;-4.50;99.90;;;;;;12319074;28;20047;-79
2024/01/09 15:57:38;;;;;;;17.52;16.08;;;-4.60;99.90;;;;;;12327549;28;20055;-78
2024/01/09 16:03:40;;;;;;;14.95;13.13;;;-4.60;99.90;;;;;;12335695;28;20096;-77
2024/01/09 16:09:42;;;;;;;16.65;15.30;;;-4.60;99.90;;;;;;12324871;28;20121;-78
2024/01/09 16:15:45;;;;;;;17.13;15.45;;;-4.70;99.90;;;;;;12329508;28;20043;-78
2024/01/09 16:21:51;;;;;;;15.73;14.63;;;-4.80;99.90;;;;;;12330806;28;20100;-79
2024/01/09 16:27:54;;;;;;;16.35;14.88;;;-4.90;99.90;;;;;;12305160;28;20047;-79
2024/01/09 16:33:56;;;;;;;14.48;13.05;;;-4.90;99.90;;;;;;12334461;28;20130;-78
2024/01/09 16:39:58;;;;;;;15.77;14.23;;;-4.70;99.90;;;;;;12318827;28;20051;-78
2024/01/09 16:46:00;;;;;;;15.25;13.95;;;-4.80;99.90;;;;;;12348733;28;20388;-78
2024/01/09 16:52:03;;;;;;;16.20;14.70;;;-4.90;99.90;;;;;;12324374;28;20044;-79
2024/01/09 16:58:05;;;;;;;15.00;13.70;;;-4.90;99.90;;;;;;12326123;28;20053;-78
2024/01/09 17:04:07;;;;;;;16.42;15.10;;;-4.80;99.90;;;;;;12311078;28;20059;-79
2024/01/09 17:10:10;;;;;;;18.25;16.48;;;-5.00;99.90;;;;;;12324280;28;20063;-78
2024/01/09 17:16:12;;;;;;;16.83;15.32;;;-5.20;99.90;;;;;;12321676;28;20062;-78
2024/01/09 17:22:13;;;;;;;22.95;18.02;;;-5.20;99.90;;;;;;12318463;28;20480;-77
2024/01/09 17:28:15;;;;;;;19.23;17.77;;;-5.30;99.90;;;;;;12322202;28;20067;-78
2024/01/09 17:34:17;;;;;;;20.20;18.30;;;-5.40;99.90;;;;;;12334598;28;20085;-78
2024/01/09 17:40:19;;;;;;;22.40;19.95;;;-5.40;99.90;;;;;;12347647;28;20051;-78
2024/01/09 17:46:21;;;;;;;21.38;19.50;;;-5.40;99.90;;;;;;12354608;28;20051;-77
2024/01/09 17:52:24;;;;;;;16.73;15.32;;;-5.50;99.90;;;;;;12336138;28;20090;-79
2024/01/09 17:58:26;;;;;;;19.55;17.88;;;-5.50;99.90;;;;;;12359081;28;20044;-77
2024/01/09 18:04:29;;;;;;;18.85;17.45;;;-5.50;99.90;;;;;;12322631;28;20128;-78
2024/01/09 18:10:31;;;;;;;21.60;19.75;;;-5.70;99.90;;;;;;12325151;28;20074;-78
2024/01/09 18:16:33;;;;;;;18.25;16.77;;;-5.80;99.90;;;;;;12334039;28;20513;-77
2024/01/09 18:22:35;;;;;;;16.70;15.38;;;-5.80;99.90;;;;;;12311556;28;20051;-77
2024/01/09 18:28:37;;;;;;;16.98;15.60;;;-5.80;99.90;;;;;;12357222;28;20146;-77
2024/01/09 18:34:46;;;;;;;16.08;14.75;;;-5.70;99.90;;;;;;12328698;28;20055;-77
2024/01/09 18:40:48;;;;;;;18.42;16.90;;;-5.70;99.90;;;;;;12330081;28;20055;-77
2024/01/09 18:46:50;;;;;;;20.83;19.20;;;-5.80;99.90;;;;;;12335257;28;20085;-78
2024/01/09 18:52:53;;;;;;;18.95;17.27;;;-5.80;99.90;;;;;;12318219;28;20047;-79
2024/01/09 18:58:56;;;;;;;20.10;18.35;;;-5.80;99.90;;;;;;12408454;28;20047;-80
2024/01/09 19:04:58;;;;;;;19.40;17.63;;;-5.90;99.90;;;;;;12376551;28;20097;-78
2024/01/09 19:11:01;;;;;;;17.95;16.45;;;-6.00;99.90;;;;;;12344487;28;20047;-77
2024/01/09 19:17:03;;;;;;;17.33;15.68;;;-6.10;99.90;;;;;;12341313;28;20107;-78
2024/01/09 19:23:06;;;;;;;15.60;14.38;;;-6.00;99.90;;;;;;12310198;28;20093;-78
2024/01/09 19:29:08;;;;;;;14.82;13.57;;;-6.00;99.90;;;;;;12303207;28;20073;-78
2024/01/09 19:35:13;;;;;;;14.73;13.38;;;-6.00;99.90;;;;;;12343548;28;20058;-78
2024/01/09 19:41:16;;;;;;;13.15;11.98;;;-6.00;99.90;;;;;;12317805;28;20047;-77
2024/01/09 19:47:18;;;;;;;14.45;13.13;;;-6.00;99.90;;;;;;12329552;28;20095;-79
2024/01/09 19:53:21;;;;;;;15.82;14.43;;;-6.10;99.90;;;;;;12325226;28;20050;-79
2024/01/09 19:59:23;;;;;;;15.43;14.02;;;-6.10;99.90;;;;;;12319778;28;20093;-79
2024/01/09 20:05:25;;;;;;;14.07;12.90;;;-6.10;99.90;;;;;;12386593;28;20066;-78
2024/01/09 20:11:29;;;;;;;15.88;14.68;;;-6.00;99.90;;;;;;12318550;28;20051;-78
2024/01/09 20:17:31;;;;;;;16.13;14.60;;;-6.00;99.90;;;;;;12308855;28;20059;-78
2024/01/09 20:23:33;;;;;;;15.55;14.10;;;-6.20;99.90;;;;;;12305107;28;20134;-77
2024/01/09 20:29:35;;;;;;;14.50;11.43;;;-6.20;99.90;;;;;;12308252;28;20508;-77
2024/01/09 20:35:37;;;;;;;12.30;11.13;;;-6.00;99.90;;;;;;12335165;28;20055;-80
2024/01/09 20:41:45;;;;;;;13.48;12.13;;;-5.90;99.90;;;;;;12328275;28;20074;-77
2024/01/09 20:47:48;;;;;;;14.50;13.20;;;-5.90;99.90;;;;;;12338665;28;20059;-77
2024/01/09 20:53:50;;;;;;;17.00;15.38;;;-5.70;99.90;;;;;;12323633;28;20066;-77
2024/01/09 20:59:52;;;;;;;18.58;16.67;;;-5.80;99.90;;;;;;12324434;28;20085;-77
2024/01/09 21:05:54;;;;;;;17.70;16.20;;;-5.80;99.90;;;;;;12307367;28;20051;-77
2024/01/09 21:11:56;;;;;;;15.23;14.00;;;-5.90;99.90;;;;;;12318682;28;20089;-78
2024/01/09 21:18:02;;;;;;;17.92;16.33;;;-5.70;99.90;;;;;;12313894;28;20051;-77
2024/01/09 21:24:05;;;;;;;19.85;18.30;;;-5.80;99.90;;;;;;12339876;28;20120;-77
2024/01/09 21:30:08;;;;;;;19.20;17.52;;;-5.80;99.90;;;;;;12316496;28;20054;-77
2024/01/09 21:36:11;;;;;;;19.33;17.43;;;-5.90;99.90;;;;;;12376343;28;20166;-78
2024/01/09 21:42:14;;;;;;;16.55;15.02;;;-5.80;99.90;;;;;;12330967;28;20066;-77
2024/01/09 21:48:15;;;;;;;19.65;18.17;;;-5.60;99.90;;;;;;12344213;28;20051;-77
2024/01/09 21:54:17;;;;;;;19.90;18.23;;;-5.70;99.90;;;;;;12320855;28;20047;-77
2024/01/09 22:00:20;;;;;;;21.30;19.60;;;-5.70;99.90;;;;;;12319439;28;20502;-79
2024/01/09 22:06:22;;;;;;;20.65;19.02;;;-5.90;99.90;;;;;;12341733;28;20062;-77
2024/01/09 22:12:24;;;;;;;19.92;18.08;;;-5.90;99.90;;;;;;12328096;28;20044;-77
2024/01/09 22:18:26;;;;;;;22.02;20.08;;;-5.80;99.90;;;;;;12343436;28;20054;-78
2024/01/09 22:24:28;;;;;;;22.10;20.27;;;-5.80;99.90;;;;;;12332650;28;20081;-76
2024/01/09 22:30:30;;;;;;;21.85;20.17;;;-5.80;99.90;;;;;;12328017;28;20109;-77
2024/01/09 22:36:32;;;;;;;21.27;19.65;;;-5.90;99.90;;;;;;12339335;28;20061;-77
2024/01/09 22:42:34;;;;;;;22.40;20.45;;;-5.90;99.90;;;;;;12350666;28;20047;-78
2024/01/09 22:48:36;;;;;;;21.05;19.45;;;-5.90;99.90;;;;;;12349668;28;20060;-77
2024/01/09 22:54:38;;;;;;;23.58;21.63;;;-5.90;99.90;;;;;;12340237;28;20058;-76
2024/01/09 23:00:40;;;;;;;23.00;21.33;;;-5.90;99.90;;;;;;12339805;28;20043;-76
2024/01/09 23:06:43;;;;;;;22.45;20.63;;;-5.90;99.90;;;;;;12342676;28;20620;-77
2024/01/09 23:12:45;;;;;;;21.33;19.55;;;-6.00;99.90;;;;;;12338574;28;20051;-76
2024/01/09 23:18:48;;;;;;;23.15;21.35;;;-6.00;99.90;;;;;;12316880;28;20049;-77
2024/01/09 23:24:50;;;;;;;24.23;21.98;;;-6.00;99.90;;;;;;12311819;28;20125;-76
2024/01/09 23:30:52;;;;;;;21.85;19.92;;;-6.10;99.90;;;;;;12325347;28;20411;-77
2024/01/09 23:36:54;;;;;;;25.25;23.35;;;-6.10;99.90;;;;;;12333610;28;20049;-77
2024/01/09 23:42:56;;;;;;;24.35;22.35;;;-6.10;99.90;;;;;;12329626;28;20043;-77
2024/01/09 23:48:58;;;;;;;22.98;20.98;;;-6.10;99.90;;;;;;12337423;28;20487;-77
2024/01/09 23:54:59;;;;;;;21.83;19.88;;;-6.10;99.90;;;;;;12324900;28;20047;-78
